createdAt,value
2023-02-11T00:01:42.714Z,25.33
2023-02-11T00:04:14.498Z,23.65
2023-02-11T00:06:46.193Z,23.55
2023-02-11T00:09:17.882Z,23.70
2023-02-11T00:11:51.900Z,23.42
2023-02-11T00:14:26.198Z,22.25
2023-02-11T00:16:57.963Z,22.65
2023-02-11T00:19:29.660Z,22.67
2023-02-11T00:22:01.337Z,21.30
2023-02-11T00:24:33.002Z,22.83
2023-02-11T00:27:04.744Z,21.83
2023-02-11T00:29:37.667Z,22.58
2023-02-11T00:32:10.516Z,22.60
2023-02-11T00:34:42.208Z,24.08
2023-02-11T00:37:16.801Z,22.30
2023-02-11T00:39:50.165Z,24.77
2023-02-11T00:42:21.932Z,23.70
2023-02-11T00:44:55.748Z,23.42
2023-02-11T00:47:27.753Z,22.65
2023-02-11T00:50:01.020Z,23.77
2023-02-11T00:52:33.075Z,24.35
2023-02-11T00:55:05.033Z,24.10
2023-02-11T00:57:37.923Z,24.80
2023-02-11T01:00:11.543Z,24.40
2023-02-11T01:02:43.208Z,24.33
2023-02-11T01:05:15.438Z,25.73
2023-02-11T01:07:47.216Z,24.73
2023-02-11T01:10:19.122Z,25.17
2023-02-11T01:12:52.220Z,23.83
2023-02-11T01:15:24.310Z,25.58
2023-02-11T01:17:56.081Z,26.80
2023-02-11T01:20:31.117Z,25.90
2023-02-11T01:23:02.820Z,25.08
2023-02-11T01:25:34.445Z,25.17
2023-02-11T01:28:19.306Z,23.83
2023-02-11T01:30:51.544Z,24.77
2023-02-11T01:33:23.887Z,24.00
2023-02-11T01:35:55.686Z,24.77
2023-02-11T01:38:27.386Z,24.25
2023-02-11T01:41:05.491Z,24.67
2023-02-11T01:43:43.032Z,24.02
2023-02-11T01:46:29.064Z,24.10
2023-02-11T01:49:09.660Z,25.70
2023-02-11T01:51:50.117Z,25.58
2023-02-11T01:54:44.780Z,26.52
2023-02-11T01:57:22.314Z,25.70
2023-02-11T02:00:07.373Z,25.75
2023-02-11T02:02:57.277Z,25.40
2023-02-11T02:05:46.961Z,23.40
2023-02-11T02:08:29.502Z,26.48
2023-02-11T02:11:01.331Z,23.95
2023-02-11T02:13:36.120Z,24.20
2023-02-11T02:21:36.458Z,24.33
2023-02-11T02:24:29.126Z,24.60
2023-02-11T02:27:22.480Z,23.25
2023-02-11T02:30:26.700Z,22.70
2023-02-11T02:33:22.675Z,23.67
2023-02-11T02:36:09.716Z,23.17
2023-02-11T02:38:50.944Z,24.45
2023-02-11T02:41:29.128Z,24.98
2023-02-11T02:44:01.303Z,22.95
2023-02-11T02:46:34.873Z,23.90
2023-02-11T02:49:11.024Z,25.05
2023-02-11T02:52:05.220Z,23.92
2023-02-11T02:54:58.541Z,23.27
2023-02-11T02:57:46.587Z,23.60
2023-02-11T03:00:31.716Z,23.38
2023-02-11T03:03:20.933Z,23.73
2023-02-11T03:06:04.341Z,22.45
2023-02-11T03:08:51.304Z,22.33
2023-02-11T03:11:24.425Z,24.10
2023-02-11T03:13:57.924Z,23.75
2023-02-11T03:16:31.027Z,22.55
2023-02-11T03:19:16.773Z,22.50
2023-02-11T03:21:51.943Z,22.73
2023-02-11T03:24:38.621Z,22.15
2023-02-11T03:27:18.469Z,21.67
2023-02-11T03:29:58.269Z,20.80
2023-02-11T03:32:38.989Z,21.88
2023-02-11T03:35:23.123Z,20.65
2023-02-11T03:37:59.823Z,20.95
2023-02-11T03:40:39.822Z,21.48
2023-02-11T03:43:23.186Z,20.85
2023-02-11T03:45:56.670Z,20.95
2023-02-11T03:48:37.962Z,20.38
2023-02-11T03:51:12.777Z,20.00
2023-02-11T03:56:22.128Z,20.27
2023-02-11T03:58:53.823Z,21.25
2023-02-11T04:01:25.597Z,19.88
2023-02-11T04:03:57.381Z,18.77
2023-02-11T04:06:29.076Z,18.83
2023-02-11T04:09:00.789Z,19.75
2023-02-11T04:11:32.663Z,20.35
2023-02-11T04:14:04.771Z,20.02
2023-02-11T04:16:36.503Z,20.55
2023-02-11T04:19:08.336Z,18.30
2023-02-11T04:21:39.981Z,18.98
2023-02-11T04:24:11.714Z,18.25
2023-02-11T04:26:43.367Z,19.48
2023-02-11T04:29:18.362Z,18.10
2023-02-11T04:31:50.272Z,18.17
2023-02-11T04:34:22.127Z,18.83
2023-02-11T04:36:55.185Z,18.77
2023-02-11T04:39:26.934Z,19.08
2023-02-11T04:41:58.534Z,18.30
2023-02-11T04:44:30.451Z,18.58
2023-02-11T04:47:04.151Z,18.13
2023-02-11T04:49:35.922Z,17.80
2023-02-11T04:52:08.301Z,17.63
2023-02-11T04:54:40.673Z,19.15
2023-02-11T04:57:12.360Z,18.90
2023-02-11T04:59:44.198Z,18.50
2023-02-11T05:02:15.836Z,18.05
2023-02-11T05:04:47.678Z,18.98
2023-02-11T05:07:19.351Z,18.73
2023-02-11T05:09:50.993Z,18.48
2023-02-11T05:12:22.630Z,16.80
2023-02-11T05:14:54.325Z,17.88
2023-02-11T05:17:26.022Z,18.33
2023-02-11T05:19:57.784Z,17.40
2023-02-11T05:22:29.448Z,18.55
2023-02-11T05:25:01.140Z,17.48
2023-02-11T05:27:32.778Z,17.45
2023-02-11T05:30:06.088Z,18.08
2023-02-11T05:32:37.867Z,17.35
2023-02-11T05:35:09.677Z,18.77
2023-02-11T05:37:41.360Z,17.75
2023-02-11T05:40:13.100Z,16.98
2023-02-11T05:42:44.847Z,18.00
2023-02-11T05:45:16.586Z,17.08
2023-02-11T05:47:48.244Z,17.63
2023-02-11T05:50:20.423Z,17.35
2023-02-11T05:52:52.435Z,17.48
2023-02-11T05:55:24.193Z,18.05
2023-02-11T05:57:55.868Z,14.32
2023-02-11T06:00:30.284Z,17.67
2023-02-11T06:03:02.030Z,17.92
2023-02-11T06:05:33.856Z,17.00
2023-02-11T06:08:05.585Z,16.70
2023-02-11T06:10:37.918Z,16.77
2023-02-11T06:13:09.594Z,16.38
2023-02-11T06:15:41.302Z,17.20
2023-02-11T06:18:12.980Z,16.75
2023-02-11T06:20:44.641Z,16.20
2023-02-11T06:23:16.290Z,16.63
2023-02-11T06:25:48.026Z,15.65
2023-02-11T06:28:19.969Z,17.08
2023-02-11T06:30:51.717Z,17.20
2023-02-11T06:33:23.797Z,16.40
2023-02-11T06:35:58.380Z,16.15
2023-02-11T06:38:30.051Z,16.15
2023-02-11T06:41:01.708Z,15.65
2023-02-11T06:43:33.362Z,16.13
2023-02-11T06:46:05.176Z,16.05
2023-02-11T06:48:36.985Z,16.33
2023-02-11T06:51:11.356Z,15.98
2023-02-11T06:53:47.225Z,15.75
2023-02-11T06:56:21.513Z,14.93
2023-02-11T06:58:58.148Z,16.10
2023-02-11T07:01:29.937Z,15.95
2023-02-11T07:04:01.565Z,15.60
2023-02-11T07:06:33.309Z,16.70
2023-02-11T07:09:05.402Z,16.92
2023-02-11T07:11:37.069Z,15.38
2023-02-11T07:14:08.788Z,16.63
2023-02-11T07:16:40.616Z,16.52
2023-02-11T07:19:12.321Z,17.25
2023-02-11T07:21:44.019Z,16.10
2023-02-11T07:24:16.014Z,17.20
2023-02-11T07:26:47.702Z,16.15
2023-02-11T07:29:19.373Z,16.27
2023-02-11T07:31:51.115Z,16.40
2023-02-11T07:34:22.854Z,15.02
2023-02-11T07:36:54.647Z,17.55
2023-02-11T07:39:27.597Z,15.35
2023-02-11T07:42:00.103Z,15.68
2023-02-11T07:44:33.331Z,15.98
2023-02-11T07:47:05.098Z,16.17
2023-02-11T07:49:36.896Z,15.52
2023-02-11T07:52:08.607Z,15.77
2023-02-11T07:54:40.382Z,15.45
2023-02-11T07:57:12.134Z,15.43
2023-02-11T07:59:43.799Z,15.77
2023-02-11T08:02:15.549Z,15.88
2023-02-11T08:04:47.338Z,15.50
2023-02-11T08:07:19.782Z,15.73
2023-02-11T08:09:51.514Z,14.77
2023-02-11T08:12:23.242Z,14.23
2023-02-11T08:14:56.251Z,15.50
2023-02-11T08:17:27.935Z,14.70
2023-02-11T08:20:02.442Z,15.50
2023-02-11T08:22:35.015Z,15.25
2023-02-11T08:25:06.950Z,15.43
2023-02-11T08:27:38.801Z,16.20
2023-02-11T08:30:11.210Z,14.77
2023-02-11T08:32:42.895Z,15.38
2023-02-11T08:35:14.583Z,15.30
2023-02-11T08:37:46.285Z,14.77
2023-02-11T08:40:18.049Z,14.85
2023-02-11T08:42:49.728Z,14.90
2023-02-11T08:45:21.493Z,15.32
2023-02-11T08:47:53.258Z,15.00
2023-02-11T08:50:25.829Z,15.60
2023-02-11T08:52:57.549Z,14.82
2023-02-11T08:55:29.289Z,13.48
2023-02-11T08:58:00.981Z,16.27
2023-02-11T09:00:32.869Z,14.93
2023-02-11T09:03:04.752Z,15.27
2023-02-11T09:05:43.822Z,15.73
2023-02-11T09:08:16.217Z,14.85
2023-02-11T09:10:47.994Z,15.82
2023-02-11T09:13:19.716Z,15.85
2023-02-11T09:15:54.478Z,14.60
2023-02-11T09:18:26.796Z,15.40
2023-02-11T09:21:07.035Z,14.90
2023-02-11T09:23:38.935Z,14.35
2023-02-11T09:26:34.924Z,14.00
2023-02-11T09:29:07.014Z,14.32
2023-02-11T09:31:38.913Z,14.05
2023-02-11T09:34:12.269Z,15.10
2023-02-11T09:36:44.031Z,14.80
2023-02-11T09:39:17.511Z,15.55
2023-02-11T09:42:20.087Z,14.88
2023-02-11T09:44:52.495Z,14.48
2023-02-11T09:47:35.536Z,14.13
2023-02-11T09:50:12.474Z,13.30
2023-02-11T09:53:04.958Z,15.80
2023-02-11T09:55:44.990Z,15.85
2023-02-11T09:58:25.669Z,14.25
2023-02-11T10:01:17.164Z,15.00
2023-02-11T10:04:08.509Z,14.82
2023-02-11T10:06:50.679Z,14.73
2023-02-11T10:09:22.443Z,15.38
2023-02-11T10:12:48.234Z,15.40
2023-02-11T10:15:57.436Z,14.45
2023-02-11T10:18:52.206Z,15.10
2023-02-11T10:21:34.355Z,15.63
2023-02-11T10:24:12.581Z,14.30
2023-02-11T10:26:45.612Z,15.15
2023-02-11T10:29:38.573Z,16.25
2023-02-11T10:32:38.661Z,15.15
2023-02-11T10:35:22.028Z,15.90
2023-02-11T10:37:55.832Z,15.90
2023-02-11T10:40:29.752Z,14.67
2023-02-11T10:43:06.115Z,16.07
2023-02-11T10:45:48.654Z,15.38
2023-02-11T10:48:43.325Z,14.38
2023-02-11T10:51:15.067Z,15.35
2023-02-11T10:53:49.662Z,15.60
2023-02-11T10:56:27.831Z,15.40
2023-02-11T10:59:05.775Z,15.32
2023-02-11T11:01:50.181Z,14.95
2023-02-11T11:04:32.191Z,14.45
2023-02-11T11:07:22.902Z,15.27
2023-02-11T11:10:05.292Z,15.80
2023-02-11T11:12:45.931Z,15.05
2023-02-11T11:15:24.943Z,14.90
2023-02-11T11:18:24.588Z,14.52
2023-02-11T11:21:00.564Z,14.05
2023-02-11T11:23:34.648Z,15.25
2023-02-11T11:26:28.072Z,14.77
2023-02-11T11:29:10.597Z,14.82
2023-02-11T11:32:01.354Z,14.45
2023-02-11T11:34:37.251Z,14.40
2023-02-11T11:37:19.471Z,15.18
2023-02-11T11:40:04.082Z,13.68
2023-02-11T11:42:38.211Z,14.93
2023-02-11T11:45:16.096Z,14.88
2023-02-11T11:47:54.489Z,15.48
2023-02-11T11:50:38.418Z,14.55
2023-02-11T11:53:26.054Z,14.10
2023-02-11T11:56:05.012Z,15.13
2023-02-11T11:58:37.042Z,13.75
2023-02-11T12:01:20.031Z,14.82
2023-02-11T12:04:23.984Z,14.43
2023-02-11T12:07:07.894Z,14.13
2023-02-11T12:09:48.524Z,15.00
2023-02-11T12:12:34.463Z,14.65
2023-02-11T12:15:32.860Z,15.00
2023-02-11T12:18:35.335Z,15.23
2023-02-11T12:21:24.919Z,15.77
2023-02-11T12:24:10.171Z,14.75
2023-02-11T12:26:51.121Z,13.80
2023-02-11T12:29:25.573Z,14.82
2023-02-11T12:32:12.576Z,13.30
2023-02-11T12:34:53.175Z,15.30
2023-02-11T12:38:02.617Z,14.00
2023-02-11T12:41:15.205Z,14.02
2023-02-11T12:43:47.248Z,14.18
2023-02-11T12:46:24.951Z,15.07
2023-02-11T12:49:18.927Z,14.85
2023-02-11T12:51:59.422Z,14.65
2023-02-11T12:54:46.185Z,14.82
2023-02-11T12:57:26.579Z,14.95
2023-02-11T13:00:07.961Z,14.90
2023-02-11T13:02:55.061Z,14.45
2023-02-11T13:05:58.743Z,15.13
2023-02-11T13:08:44.480Z,15.30
2023-02-11T13:11:24.466Z,14.35
2023-02-11T13:14:04.045Z,15.27
2023-02-11T13:16:43.825Z,14.15
2023-02-11T13:19:31.232Z,15.35
2023-02-11T13:22:15.744Z,15.32
2023-02-11T13:25:00.350Z,15.48
2023-02-11T13:27:32.021Z,15.25
2023-02-11T13:30:26.980Z,15.00
2023-02-11T13:33:00.661Z,13.73
2023-02-11T13:35:35.338Z,15.15
2023-02-11T13:38:28.691Z,14.50
2023-02-11T13:41:13.752Z,13.95
2023-02-11T13:46:30.660Z,14.52
2023-02-11T13:49:02.432Z,13.65
2023-02-11T13:51:42.299Z,13.77
2023-02-11T13:54:34.540Z,13.40
2023-02-11T13:57:21.773Z,13.60
2023-02-11T14:00:20.940Z,13.90
2023-02-11T14:03:29.669Z,13.38
2023-02-11T14:06:29.181Z,12.43
2023-02-11T14:09:00.795Z,14.15
2023-02-11T14:11:37.005Z,14.05
2023-02-11T14:14:16.577Z,14.98
2023-02-11T14:17:04.655Z,15.02
2023-02-11T14:19:43.678Z,14.90
2023-02-11T14:22:23.678Z,13.20
2023-02-11T14:24:55.287Z,12.73
2023-02-11T14:27:43.114Z,13.45
2023-02-11T14:30:34.038Z,13.07
2023-02-11T14:33:37.970Z,13.75
2023-02-11T14:36:23.102Z,14.30
2023-02-11T14:41:42.268Z,14.57
2023-02-11T14:44:19.533Z,14.15
2023-02-11T14:46:53.470Z,12.73
2023-02-11T14:49:36.738Z,14.00
2023-02-11T14:52:14.081Z,14.45
2023-02-11T14:54:49.278Z,13.98
2023-02-11T14:57:20.999Z,12.77
2023-02-11T14:59:59.501Z,13.98
2023-02-11T15:02:38.644Z,13.82
2023-02-11T15:05:20.458Z,13.88
2023-02-11T15:07:55.804Z,13.63
2023-02-11T15:10:33.037Z,13.15
2023-02-11T15:13:08.174Z,13.48
2023-02-11T15:15:40.847Z,13.52
2023-02-11T15:18:24.620Z,12.88
2023-02-11T15:20:56.463Z,13.35
2023-02-11T15:23:30.543Z,13.93
2023-02-11T15:26:05.673Z,14.43
2023-02-11T15:28:37.345Z,13.73
2023-02-11T15:31:20.378Z,13.27
2023-02-11T15:33:52.973Z,14.15
2023-02-11T15:36:28.817Z,14.55
2023-02-11T15:39:30.502Z,13.25
2023-02-11T15:42:28.327Z,13.77
2023-02-11T15:45:15.370Z,13.05
2023-02-11T15:48:12.714Z,13.65
2023-02-11T15:50:52.358Z,13.82
2023-02-11T15:53:40.867Z,14.65
2023-02-11T15:56:12.784Z,14.02
2023-02-11T15:58:49.273Z,15.20
2023-02-11T16:01:33.152Z,14.30
2023-02-11T16:04:16.017Z,13.85
2023-02-11T16:06:50.037Z,14.07
2023-02-11T16:09:32.622Z,14.23
2023-02-11T16:12:27.233Z,14.93
2023-02-11T16:15:00.259Z,15.20
2023-02-11T16:17:31.927Z,14.55
2023-02-11T16:20:03.880Z,15.32
2023-02-11T16:22:38.137Z,13.65
2023-02-11T16:25:19.454Z,13.45
2023-02-11T16:27:54.788Z,13.73
2023-02-11T16:30:44.597Z,14.50
2023-02-11T16:33:16.382Z,14.10
2023-02-11T16:35:48.899Z,14.48
2023-02-11T16:38:21.244Z,14.43
2023-02-11T16:40:53.183Z,14.65
2023-02-11T16:43:25.139Z,13.98
2023-02-11T16:45:58.842Z,13.77
2023-02-11T16:48:32.264Z,14.38
2023-02-11T16:51:04.615Z,14.75
2023-02-11T16:53:36.319Z,14.88
2023-02-11T16:56:14.698Z,15.30
2023-02-11T16:58:46.475Z,15.38
2023-02-11T17:01:18.340Z,14.15
2023-02-11T17:03:50.219Z,15.55
2023-02-11T17:06:21.950Z,14.38
2023-02-11T17:08:53.792Z,14.82
2023-02-11T17:11:25.527Z,14.60
2023-02-11T17:13:57.194Z,13.57
2023-02-11T17:16:29.968Z,13.90
2023-02-11T17:19:02.286Z,14.30
2023-02-11T17:21:35.152Z,13.93
2023-02-11T17:24:07.080Z,13.82
2023-02-11T17:26:39.316Z,14.45
2023-02-11T17:29:16.389Z,14.85
2023-02-11T17:31:48.571Z,14.68
2023-02-11T17:34:21.963Z,14.32
2023-02-11T17:36:53.677Z,13.45
2023-02-11T17:39:25.905Z,14.40
2023-02-11T17:41:57.584Z,14.98
2023-02-11T17:44:29.249Z,13.73
2023-02-11T17:47:00.981Z,13.43
2023-02-11T17:49:33.227Z,15.02
2023-02-11T17:52:05.109Z,14.40
2023-02-11T17:54:38.082Z,14.63
2023-02-11T17:57:11.965Z,15.75
2023-02-11T17:59:43.646Z,14.27
2023-02-11T18:02:15.618Z,13.77
2023-02-11T18:04:47.372Z,14.50
2023-02-11T18:07:19.957Z,14.73
2023-02-11T18:09:52.032Z,14.38
2023-02-11T18:12:26.731Z,14.68
2023-02-11T18:14:58.465Z,14.52
2023-02-11T18:17:30.264Z,14.55
2023-02-11T18:20:03.560Z,14.82
2023-02-11T18:22:39.368Z,14.73
2023-02-11T18:25:16.119Z,14.32
2023-02-11T18:27:47.960Z,14.95
2023-02-11T18:30:20.600Z,13.70
2023-02-11T18:32:56.338Z,13.65
2023-02-11T18:35:28.044Z,14.52
2023-02-11T18:37:59.916Z,14.98
2023-02-11T18:40:31.611Z,15.55
2023-02-11T18:43:03.415Z,14.73
2023-02-11T18:45:35.329Z,14.30
2023-02-11T18:48:10.099Z,15.13
2023-02-11T18:53:17.809Z,14.32
2023-02-11T18:55:49.931Z,13.27
2023-02-11T18:58:21.787Z,14.60
2023-02-11T19:00:53.809Z,14.23
2023-02-11T19:03:25.575Z,14.35
2023-02-11T19:05:57.207Z,14.75
2023-02-11T19:08:28.907Z,14.23
2023-02-11T19:11:00.747Z,13.13
2023-02-11T19:13:35.902Z,13.20
2023-02-11T19:16:11.330Z,13.05
2023-02-11T19:18:53.250Z,13.40
2023-02-11T19:21:28.125Z,12.70
2023-02-11T19:24:03.026Z,12.75
2023-02-11T19:26:35.218Z,12.75
2023-02-11T19:29:07.086Z,12.77
2023-02-11T19:31:39.244Z,13.88
2023-02-11T19:34:14.099Z,14.27
2023-02-11T19:39:18.514Z,12.43
2023-02-11T19:41:50.313Z,12.60
2023-02-11T19:44:22.041Z,13.02
2023-02-11T19:46:54.780Z,13.40
2023-02-11T19:49:26.604Z,12.68
2023-02-11T19:51:58.642Z,12.98
2023-02-11T19:54:30.410Z,13.25
2023-02-11T19:57:02.173Z,12.52
2023-02-11T19:59:33.851Z,12.43
2023-02-11T20:02:05.491Z,13.48
2023-02-11T20:04:37.250Z,12.85
2023-02-11T20:07:08.960Z,12.88
2023-02-11T20:09:43.516Z,13.63
2023-02-11T20:12:15.232Z,12.93
2023-02-11T20:14:46.915Z,13.68
2023-02-11T20:17:18.535Z,13.05
2023-02-11T20:19:50.287Z,12.35
2023-02-11T20:22:21.951Z,13.75
2023-02-11T20:24:53.702Z,13.30
2023-02-11T20:27:29.012Z,14.30
2023-02-11T20:30:00.794Z,14.25
2023-02-11T20:32:37.882Z,12.75
2023-02-11T20:35:09.887Z,14.05
2023-02-11T20:37:44.039Z,13.38
2023-02-11T20:40:15.915Z,13.48
2023-02-11T20:42:48.617Z,14.13
2023-02-11T20:45:20.395Z,13.32
2023-02-11T20:47:52.062Z,13.48
2023-02-11T20:50:23.798Z,13.50
2023-02-11T20:52:55.430Z,12.90
2023-02-11T20:55:27.217Z,13.90
2023-02-11T20:57:58.928Z,12.60
2023-02-11T21:00:31.065Z,13.15
2023-02-11T21:03:04.217Z,13.55
2023-02-11T21:05:36.525Z,12.50
2023-02-11T21:08:11.545Z,12.30
2023-02-11T21:10:43.825Z,12.15
2023-02-11T21:13:15.522Z,12.50
2023-02-11T21:15:48.241Z,11.70
2023-02-11T21:18:19.921Z,13.32
2023-02-11T21:20:53.664Z,11.77
2023-02-11T21:23:26.083Z,11.30
2023-02-11T21:25:57.964Z,11.15
2023-02-11T21:28:29.795Z,11.65
2023-02-11T21:31:02.250Z,11.38
2023-02-11T21:33:34.600Z,11.27
2023-02-11T21:36:08.031Z,11.63
2023-02-11T21:38:39.732Z,10.45
2023-02-11T21:41:11.999Z,11.02
2023-02-11T21:43:43.922Z,11.07
2023-02-11T21:46:16.993Z,10.98
2023-02-11T21:48:49.426Z,10.73
2023-02-11T21:51:23.701Z,11.27
2023-02-11T21:54:02.929Z,10.90
2023-02-11T21:56:35.515Z,10.60
2023-02-11T21:59:07.246Z,11.20
2023-02-11T22:01:38.997Z,10.20
2023-02-11T22:04:10.837Z,11.77
2023-02-11T22:06:43.038Z,10.82
2023-02-11T22:09:14.762Z,11.05
2023-02-11T22:11:46.622Z,11.32
2023-02-11T22:14:19.138Z,11.30
2023-02-11T22:16:50.997Z,11.57
2023-02-11T22:19:24.066Z,12.15
2023-02-11T22:21:55.757Z,11.50
2023-02-11T22:24:29.035Z,12.10
2023-02-11T22:27:00.719Z,11.18
2023-02-11T22:29:32.503Z,11.52
2023-02-11T22:32:04.537Z,12.05
2023-02-11T22:34:36.635Z,12.23
2023-02-11T22:37:08.318Z,11.57
2023-02-11T22:39:40.068Z,11.90
2023-02-11T22:42:11.815Z,12.88
2023-02-11T22:44:43.539Z,12.48
2023-02-11T22:47:15.292Z,12.38
2023-02-11T22:49:47.008Z,12.45
2023-02-11T22:52:22.644Z,12.23
2023-02-11T22:54:55.187Z,12.82
2023-02-11T22:57:27.020Z,12.73
2023-02-11T22:59:58.690Z,13.85
2023-02-11T23:02:31.782Z,13.25
2023-02-11T23:05:03.896Z,13.32
2023-02-11T23:07:35.959Z,13.60
2023-02-11T23:10:08.405Z,14.25
2023-02-11T23:12:40.144Z,12.43
2023-02-11T23:15:11.866Z,12.98
2023-02-11T23:17:43.543Z,13.77
2023-02-11T23:20:15.360Z,13.52
2023-02-11T23:22:47.044Z,13.27
2023-02-11T23:25:18.737Z,12.80
2023-02-11T23:27:50.428Z,12.38
2023-02-11T23:30:22.178Z,11.40
2023-02-11T23:32:54.866Z,11.95
2023-02-11T23:35:26.580Z,11.20
2023-02-11T23:37:58.333Z,11.57
2023-02-11T23:40:30.168Z,11.13
2023-02-11T23:43:02.047Z,11.27
2023-02-11T23:45:33.795Z,11.25
2023-02-11T23:48:05.616Z,11.13
2023-02-11T23:50:39.660Z,11.20
2023-02-11T23:53:11.868Z,11.00
2023-02-11T23:55:45.427Z,11.45
2023-02-11T23:58:18.489Z,11.43
